Time;durP1;ratioP1;P1;durP2;ratioP2;P2;SDS_P1;SDS_P2;PMS_P1;PMS_P2;Temp;Humidity;BMP_temperature;BMP_pressure;BME280_temperature;BME280_humidity;BME280_pressure;Samples;Min_cycle;Max_cycle;Signal;HPM_P1;HPM_P2
2022/05/25 00:00:18;;;;;;;4.63;2.30;;;;;;;;;;5085771;28;20034;-67
2022/05/25 00:02:44;;;;;;;4.10;2.47;;;;;;;;;;5085593;28;20518;-67
2022/05/25 00:05:11;;;;;;;4.85;2.15;;;;;;;;;;5083674;28;20149;-67
2022/05/25 00:07:36;;;;;;;3.35;2.30;;;;;;;;;;5093457;28;20042;-67
2022/05/25 00:10:02;;;;;;;2.60;2.10;;;;;;;;;;5102045;28;20020;-67
2022/05/25 00:12:27;;;;;;;3.67;2.20;;;;;;;;;;5085651;28;20500;-67
2022/05/25 00:14:53;;;;;;;2.65;2.10;;;;;;;;;;5105829;28;20054;-67
2022/05/25 00:17:18;;;;;;;5.32;2.30;;;;;;;;;;5104281;28;20031;-67
2022/05/25 00:19:59;;;;;;;3.78;2.50;;;;;;;;;;5092284;28;20020;-67
2022/05/25 00:22:24;;;;;;;2.47;2.00;;;;;;;;;;5084336;28;20509;-67
2022/05/25 00:24:50;;;;;;;5.32;2.20;;;;;;;;;;5068624;28;20146;-66
2022/05/25 00:27:17;;;;;;;2.90;2.28;;;;;;;;;;5070743;28;20045;-67
2022/05/25 00:29:43;;;;;;;3.45;2.28;;;;;;;;;;5084382;28;20024;-67
2022/05/25 00:32:08;;;;;;;5.03;2.30;;;;;;;;;;5092009;28;20363;-67
2022/05/25 00:34:33;;;;;;;13.50;2.40;;;;;;;;;;5068160;28;20267;-67
2022/05/25 00:36:59;;;;;;;2.15;1.90;;;;;;;;;;5085675;28;20055;-67
2022/05/25 00:39:24;;;;;;;2.50;2.17;;;;;;;;;;5083888;28;20028;-67
2022/05/25 00:41:52;;;;;;;2.42;2.13;;;;;;;;;;5058623;28;20428;-67
2022/05/25 00:44:18;;;;;;;3.13;2.22;;;;;;;;;;5084712;28;20435;-67
2022/05/25 00:46:43;;;;;;;5.80;2.22;;;;;;;;;;5083170;28;20099;-67
2022/05/25 00:49:21;;;;;;;3.35;2.28;;;;;;;;;;5083287;28;20493;-66
2022/05/25 00:51:53;;;;;;;2.40;2.20;;;;;;;;;;5083096;28;20488;-67
2022/05/25 00:54:24;;;;;;;4.18;2.40;;;;;;;;;;5101219;28;20023;-67
2022/05/25 00:56:51;;;;;;;4.13;2.30;;;;;;;;;;5097959;28;20016;-68
2022/05/25 00:59:18;;;;;;;4.47;2.13;;;;;;;;;;5105897;28;20016;-68
2022/05/25 01:01:43;;;;;;;3.08;2.17;;;;;;;;;;5104620;28;20015;-67
2022/05/25 01:04:09;;;;;;;4.80;2.38;;;;;;;;;;5105384;28;20024;-67
2022/05/25 01:06:52;;;;;;;3.20;2.45;;;;;;;;;;5087723;28;20043;-67
2022/05/25 01:09:20;;;;;;;3.42;2.10;;;;;;;;;;5103752;28;20040;-68
2022/05/25 01:12:04;;;;;;;5.82;2.40;;;;;;;;;;5098123;28;20023;-68
2022/05/25 01:14:42;;;;;;;5.22;2.38;;;;;;;;;;5103570;28;20352;-67
2022/05/25 01:17:26;;;;;;;3.33;2.05;;;;;;;;;;5104506;28;20051;-67
2022/05/25 01:19:51;;;;;;;4.65;2.20;;;;;;;;;;5103619;28;20027;-67
2022/05/25 01:22:16;;;;;;;5.10;2.30;;;;;;;;;;5102735;28;20031;-68
2022/05/25 01:24:59;;;;;;;3.42;2.05;;;;;;;;;;5104627;28;20276;-67
2022/05/25 01:27:24;;;;;;;6.03;2.47;;;;;;;;;;5097251;28;20172;-67
2022/05/25 01:29:58;;;;;;;4.67;1.97;;;;;;;;;;5099609;28;20613;-67
2022/05/25 01:32:24;;;;;;;5.13;2.20;;;;;;;;;;5082785;28;20257;-67
2022/05/25 01:35:08;;;;;;;4.90;2.35;;;;;;;;;;5083551;28;20028;-67
2022/05/25 01:37:52;;;;;;;5.57;1.95;;;;;;;;;;5082604;28;20649;-66
2022/05/25 01:40:28;;;;;;;4.28;2.20;;;;;;;;;;5078514;28;20059;-67
2022/05/25 01:42:57;;;;;;;4.40;2.00;;;;;;;;;;5085241;28;20076;-67
2022/05/25 01:45:25;;;;;;;4.13;2.45;;;;;;;;;;5100991;28;20031;-68
2022/05/25 01:47:50;;;;;;;5.40;2.45;;;;;;;;;;5102420;28;20112;-68
2022/05/25 01:50:19;;;;;;;5.00;2.22;;;;;;;;;;5085573;28;20111;-67
2022/05/25 01:52:45;;;;;;;4.10;2.20;;;;;;;;;;5084196;28;20016;-68
2022/05/25 01:55:26;;;;;;;6.50;2.40;;;;;;;;;;5081820;28;20522;-67
2022/05/25 01:57:54;;;;;;;3.42;2.00;;;;;;;;;;5081454;28;20063;-69
2022/05/25 02:00:33;;;;;;;4.95;2.10;;;;;;;;;;5081663;28;20033;-67
2022/05/25 02:05:56;;;;;;;4.95;2.30;;;;;;;;;;5082645;28;20027;-67
2022/05/25 02:08:30;;;;;;;5.60;2.20;;;;;;;;;;5086994;28;20027;-67
2022/05/25 02:11:01;;;;;;;5.30;2.50;;;;;;;;;;5085915;28;20023;-67
2022/05/25 02:13:38;;;;;;;4.45;2.20;;;;;;;;;;5084179;28;20024;-68
2022/05/25 02:16:19;;;;;;;9.02;2.53;;;;;;;;;;5083346;28;20530;-68
2022/05/25 02:18:55;;;;;;;6.28;2.00;;;;;;;;;;5083992;28;20031;-68
2022/05/25 02:21:28;;;;;;;3.55;2.40;;;;;;;;;;5081743;28;20032;-66
2022/05/25 02:24:09;;;;;;;4.40;2.78;;;;;;;;;;5084723;28;20016;-67
2022/05/25 02:26:39;;;;;;;9.18;2.78;;;;;;;;;;5074076;28;20050;-68
2022/05/25 02:29:07;;;;;;;4.78;2.33;;;;;;;;;;5084297;28;20158;-68
2022/05/25 02:31:36;;;;;;;9.82;2.10;;;;;;;;;;5083598;28;20389;-68
2022/05/25 02:34:02;;;;;;;4.00;1.70;;;;;;;;;;5088171;28;20202;-67
2022/05/25 02:36:29;;;;;;;7.43;2.20;;;;;;;;;;5082416;28;20048;-67
2022/05/25 02:38:54;;;;;;;3.55;1.80;;;;;;;;;;5088039;28;20352;-68
2022/05/25 02:41:26;;;;;;;5.47;2.40;;;;;;;;;;5077698;28;20484;-67
2022/05/25 02:43:52;;;;;;;5.03;2.00;;;;;;;;;;5087810;28;20016;-68
2022/05/25 02:46:18;;;;;;;5.43;2.10;;;;;;;;;;5085302;28;20254;-67
2022/05/25 02:48:43;;;;;;;6.38;2.10;;;;;;;;;;5100175;28;20489;-67
2022/05/25 02:51:09;;;;;;;5.47;1.90;;;;;;;;;;5106889;28;20141;-68
2022/05/25 02:53:34;;;;;;;4.93;2.05;;;;;;;;;;5106558;28;20016;-68
2022/05/25 02:56:00;;;;;;;5.25;2.28;;;;;;;;;;5098941;28;20069;-67
2022/05/25 02:58:27;;;;;;;6.03;2.03;;;;;;;;;;5095241;28;20032;-67
2022/05/25 03:00:52;;;;;;;5.88;2.08;;;;;;;;;;5085472;28;20020;-67
2022/05/25 03:03:19;;;;;;;4.50;1.90;;;;;;;;;;5087540;28;20081;-67
2022/05/25 03:05:44;;;;;;;6.30;2.38;;;;;;;;;;5083686;28;20020;-67
2022/05/25 03:08:09;;;;;;;4.35;1.80;;;;;;;;;;5088860;28;20023;-67
2022/05/25 03:10:35;;;;;;;6.53;2.33;;;;;;;;;;5078024;28;20856;-68
2022/05/25 03:13:02;;;;;;;6.45;2.10;;;;;;;;;;5085104;28;20432;-67
2022/05/25 03:15:27;;;;;;;2.90;1.80;;;;;;;;;;5085044;28;20052;-68
2022/05/25 03:17:53;;;;;;;1.60;1.45;;;;;;;;;;5086771;28;20023;-66
2022/05/25 03:20:18;;;;;;;4.43;2.13;;;;;;;;;;5084092;28;20346;-67
2022/05/25 03:22:44;;;;;;;4.38;1.75;;;;;;;;;;5084647;28;20020;-68
2022/05/25 03:25:11;;;;;;;4.18;2.08;;;;;;;;;;5081210;28;20332;-67
2022/05/25 03:27:36;;;;;;;2.92;2.03;;;;;;;;;;5062692;28;20024;-67
2022/05/25 03:30:02;;;;;;;3.70;1.90;;;;;;;;;;5086396;28;20020;-68
2022/05/25 03:32:27;;;;;;;4.68;2.25;;;;;;;;;;5084180;28;20348;-67
2022/05/25 03:34:52;;;;;;;5.72;2.05;;;;;;;;;;5084801;28;20040;-67
2022/05/25 03:37:18;;;;;;;5.93;2.13;;;;;;;;;;5085222;28;20451;-67
2022/05/25 03:39:43;;;;;;;3.83;1.95;;;;;;;;;;5085751;28;20028;-67
2022/05/25 03:42:11;;;;;;;5.65;2.35;;;;;;;;;;5076243;28;20032;-68
2022/05/25 03:44:36;;;;;;;5.40;2.30;;;;;;;;;;5084590;28;20035;-68
2022/05/25 03:47:02;;;;;;;5.93;2.80;;;;;;;;;;5084967;28;20548;-67
2022/05/25 03:49:27;;;;;;;4.35;2.08;;;;;;;;;;5091244;28;20420;-66
2022/05/25 03:51:53;;;;;;;4.68;2.47;;;;;;;;;;5105239;28;20034;-67
2022/05/25 03:54:18;;;;;;;6.13;3.17;;;;;;;;;;5107457;28;20058;-68
2022/05/25 03:56:44;;;;;;;6.60;3.70;;;;;;;;;;5095661;28;20338;-67
2022/05/25 03:59:09;;;;;;;8.00;3.78;;;;;;;;;;5090769;28;20474;-68
2022/05/25 04:01:36;;;;;;;5.68;4.03;;;;;;;;;;5103913;28;20055;-68
2022/05/25 04:04:01;;;;;;;8.05;4.43;;;;;;;;;;5107126;28;20031;-69
2022/05/25 04:06:27;;;;;;;9.80;5.03;;;;;;;;;;5104233;28;20096;-69
2022/05/25 04:08:52;;;;;;;9.18;5.78;;;;;;;;;;5088549;28;20098;-67
2022/05/25 04:11:18;;;;;;;11.70;6.18;;;;;;;;;;5096087;28;20436;-69
2022/05/25 04:13:43;;;;;;;10.18;6.50;;;;;;;;;;5104397;28;20505;-67
2022/05/25 04:16:08;;;;;;;10.20;6.68;;;;;;;;;;5105228;28;20387;-69
2022/05/25 04:18:34;;;;;;;11.55;7.53;;;;;;;;;;5105790;28;20480;-68
2022/05/25 04:20:59;;;;;;;8.82;7.28;;;;;;;;;;5105601;28;20047;-67
2022/05/25 04:23:26;;;;;;;14.50;8.60;;;;;;;;;;5103086;28;20031;-68
2022/05/25 04:25:52;;;;;;;13.02;8.27;;;;;;;;;;5077733;28;20031;-68
2022/05/25 04:28:17;;;;;;;15.55;9.18;;;;;;;;;;5106733;28;20034;-68
2022/05/25 04:30:43;;;;;;;11.98;8.43;;;;;;;;;;5102791;28;20126;-68
2022/05/25 04:33:08;;;;;;;13.65;9.30;;;;;;;;;;5106482;28;20016;-67
2022/05/25 04:35:33;;;;;;;13.50;9.23;;;;;;;;;;5091298;28;20028;-68
2022/05/25 04:37:58;;;;;;;12.20;8.70;;;;;;;;;;5086244;28;20024;-68
2022/05/25 04:40:30;;;;;;;13.45;9.30;;;;;;;;;;5079721;28;20051;-69
2022/05/25 04:42:57;;;;;;;14.95;9.55;;;;;;;;;;5082902;28;20066;-68
2022/05/25 04:45:22;;;;;;;12.38;9.23;;;;;;;;;;5082806;28;20024;-68
2022/05/25 04:47:48;;;;;;;11.05;9.10;;;;;;;;;;5083875;28;20172;-67
2022/05/25 04:50:15;;;;;;;16.48;10.10;;;;;;;;;;5084506;28;20055;-68
2022/05/25 04:52:40;;;;;;;19.17;10.70;;;;;;;;;;5083548;28;20028;-68
2022/05/25 04:55:07;;;;;;;14.32;10.57;;;;;;;;;;5083082;28;20055;-69
2022/05/25 04:57:32;;;;;;;15.38;11.52;;;;;;;;;;5076231;28;20058;-67
2022/05/25 04:59:59;;;;;;;19.67;12.38;;;;;;;;;;5065608;28;20047;-68
2022/05/25 05:02:25;;;;;;;21.83;12.88;;;;;;;;;;5083099;28;20336;-68
2022/05/25 05:04:50;;;;;;;21.40;14.23;;;;;;;;;;5081227;28;20104;-68
2022/05/25 05:07:16;;;;;;;22.10;15.50;;;;;;;;;;5081828;28;20035;-67
2022/05/25 05:09:43;;;;;;;23.30;16.45;;;;;;;;;;5081135;28;20034;-68
2022/05/25 05:12:08;;;;;;;25.38;15.90;;;;;;;;;;5076895;28;20028;-67
2022/05/25 05:14:34;;;;;;;22.23;15.35;;;;;;;;;;5082377;28;20288;-68
2022/05/25 05:17:01;;;;;;;25.17;17.08;;;;;;;;;;5080207;28;20056;-68
2022/05/25 05:19:27;;;;;;;28.55;18.33;;;;;;;;;;5084103;28;20024;-70
2022/05/25 05:21:59;;;;;;;27.98;18.15;;;;;;;;;;5078868;28;20425;-68
2022/05/25 05:24:24;;;;;;;23.58;16.75;;;;;;;;;;5084260;28;20027;-68
2022/05/25 05:26:50;;;;;;;24.60;17.77;;;;;;;;;;5071462;28;20722;-68
2022/05/25 05:29:15;;;;;;;25.88;18.02;;;;;;;;;;5083562;28;20122;-68
2022/05/25 05:31:40;;;;;;;34.05;19.33;;;;;;;;;;5079388;28;20019;-68
2022/05/25 05:34:06;;;;;;;33.92;20.58;;;;;;;;;;5084067;28;20042;-68
2022/05/25 05:36:36;;;;;;;30.42;20.42;;;;;;;;;;5080862;28;20452;-67
2022/05/25 05:39:05;;;;;;;31.00;20.50;;;;;;;;;;5083318;28;20008;-67
2022/05/25 05:41:34;;;;;;;32.47;21.55;;;;;;;;;;5076642;28;20059;-67
2022/05/25 05:43:59;;;;;;;27.83;20.35;;;;;;;;;;5080487;28;20028;-67
2022/05/25 05:46:25;;;;;;;29.02;20.83;;;;;;;;;;5084249;28;20367;-68
2022/05/25 05:48:50;;;;;;;31.80;21.10;;;;;;;;;;5101496;28;20080;-68
2022/05/25 05:51:16;;;;;;;28.48;21.25;;;;;;;;;;5089850;28;20020;-68
2022/05/25 05:53:42;;;;;;;26.75;22.02;;;;;;;;;;5083607;28;20038;-68
2022/05/25 05:56:07;;;;;;;33.55;21.98;;;;;;;;;;5074552;28;20039;-67
2022/05/25 05:58:33;;;;;;;27.67;19.23;;;;;;;;;;5083069;28;20017;-66
2022/05/25 06:00:58;;;;;;;30.30;21.92;;;;;;;;;;5077906;28;20060;-68
2022/05/25 06:03:24;;;;;;;32.92;19.95;;;;;;;;;;5081446;28;20020;-67
2022/05/25 06:05:49;;;;;;;24.00;20.60;;;;;;;;;;5081673;28;20179;-67
2022/05/25 06:08:16;;;;;;;24.63;20.02;;;;;;;;;;5098451;28;20023;-67
2022/05/25 06:10:42;;;;;;;27.48;20.65;;;;;;;;;;5098535;28;20041;-67
2022/05/25 06:13:07;;;;;;;27.10;20.35;;;;;;;;;;5109096;28;20027;-67
2022/05/25 06:21:01;;;;;;;28.60;21.10;;;;;;;;;;5104897;28;20269;-67
2022/05/25 06:23:26;;;;;;;29.05;20.65;;;;;;;;;;5108656;28;20032;-67
2022/05/25 06:25:51;;;;;;;26.90;21.83;;;;;;;;;;5098526;28;20285;-68
2022/05/25 06:28:17;;;;;;;31.05;23.50;;;;;;;;;;5085881;28;20067;-67
2022/05/25 06:30:42;;;;;;;29.38;21.77;;;;;;;;;;5083665;28;20051;-67
2022/05/25 06:33:07;;;;;;;25.90;19.65;;;;;;;;;;5087029;28;20031;-68
2022/05/25 06:35:33;;;;;;;21.77;19.45;;;;;;;;;;5085313;28;20038;-68
2022/05/25 06:37:59;;;;;;;24.95;21.27;;;;;;;;;;5083953;28;20472;-68
2022/05/25 06:40:25;;;;;;;25.48;21.73;;;;;;;;;;5079355;28;20027;-67
2022/05/25 06:42:51;;;;;;;27.20;20.92;;;;;;;;;;5101927;28;20088;-67
2022/05/25 06:45:17;;;;;;;25.23;20.17;;;;;;;;;;5105365;28;20030;-68
2022/05/25 06:47:42;;;;;;;21.75;19.40;;;;;;;;;;5106348;27;20020;-67
2022/05/25 06:50:08;;;;;;;24.05;20.23;;;;;;;;;;5104344;28;20085;-68
2022/05/25 06:52:33;;;;;;;25.25;20.85;;;;;;;;;;5104652;28;20062;-68
2022/05/25 06:54:59;;;;;;;22.23;19.30;;;;;;;;;;5101441;28;20702;-68
2022/05/25 06:57:27;;;;;;;22.30;19.85;;;;;;;;;;5101166;28;20027;-68
2022/05/25 06:59:53;;;;;;;23.05;18.73;;;;;;;;;;5105897;28;20435;-67
2022/05/25 07:02:18;;;;;;;21.20;17.45;;;;;;;;;;5106629;27;20122;-67
2022/05/25 07:04:44;;;;;;;21.42;18.20;;;;;;;;;;5105426;28;20381;-66
2022/05/25 07:07:09;;;;;;;22.90;18.20;;;;;;;;;;5103540;28;20062;-67
2022/05/25 07:09:38;;;;;;;19.40;17.38;;;;;;;;;;5107718;28;20028;-66
2022/05/25 07:12:04;;;;;;;24.38;17.38;;;;;;;;;;5093470;28;20028;-66
2022/05/25 07:14:29;;;;;;;20.80;17.05;;;;;;;;;;5105865;28;20084;-66
2022/05/25 07:16:58;;;;;;;23.02;16.00;;;;;;;;;;5099358;28;20070;-66
2022/05/25 07:19:23;;;;;;;18.77;15.60;;;;;;;;;;5105762;28;20019;-66
2022/05/25 07:21:49;;;;;;;20.83;14.02;;;;;;;;;;5104266;28;20527;-67
2022/05/25 07:24:14;;;;;;;19.02;15.38;;;;;;;;;;5108587;28;20389;-67
2022/05/25 07:26:40;;;;;;;19.92;14.20;;;;;;;;;;5095663;28;20031;-67
2022/05/25 07:29:05;;;;;;;15.02;13.30;;;;;;;;;;5103290;28;20030;-67
2022/05/25 07:31:39;;;;;;;16.15;12.13;;;;;;;;;;5105310;28;20024;-66
2022/05/25 07:34:06;;;;;;;15.13;12.43;;;;;;;;;;5105618;28;20422;-66
2022/05/25 07:36:32;;;;;;;15.32;12.02;;;;;;;;;;5105344;28;20156;-66
2022/05/25 07:38:59;;;;;;;14.15;11.15;;;;;;;;;;5106240;28;20113;-67
2022/05/25 07:41:25;;;;;;;14.98;11.38;;;;;;;;;;5098144;28;20104;-66
2022/05/25 07:43:57;;;;;;;14.23;10.25;;;;;;;;;;5105319;28;20016;-66
2022/05/25 07:46:22;;;;;;;11.13;9.02;;;;;;;;;;5105260;28;20020;-66
2022/05/25 07:48:48;;;;;;;15.80;8.82;;;;;;;;;;5105737;28;20034;-66
2022/05/25 07:51:13;;;;;;;14.57;8.40;;;;;;;;;;5086715;28;20030;-66
2022/05/25 07:53:57;;;;;;;9.60;6.43;;;;;;;;;;5106566;28;20023;-66
2022/05/25 07:56:33;;;;;;;11.48;6.05;;;;;;;;;;5099107;28;20011;-67
2022/05/25 07:58:59;;;;;;;8.27;4.28;;;;;;;;;;5105174;28;20102;-66
2022/05/25 08:06:54;;;;;;;3.70;2.00;;;;;;;;;;5100618;28;20386;-66
2022/05/25 08:09:19;;;;;;;6.15;1.83;;;;;;;;;;5106750;28;20024;-67
2022/05/25 08:11:45;;;;;;;5.50;1.90;;;;;;;;;;5082112;28;20505;-66
2022/05/25 08:14:10;;;;;;;7.55;1.80;;;;;;;;;;5077119;28;20502;-67
2022/05/25 08:16:35;;;;;;;6.15;2.17;;;;;;;;;;5104608;28;20131;-65
2022/05/25 08:19:00;;;;;;;4.22;1.67;;;;;;;;;;5103586;28;20460;-66
2022/05/25 08:21:26;;;;;;;3.60;1.23;;;;;;;;;;5104370;28;20091;-66
2022/05/25 08:23:51;;;;;;;8.48;1.83;;;;;;;;;;5103090;28;20036;-66
2022/05/25 08:26:16;;;;;;;7.47;1.42;;;;;;;;;;5093084;28;20020;-66
2022/05/25 08:28:42;;;;;;;6.63;1.50;;;;;;;;;;5105261;28;20054;-66
2022/05/25 08:31:07;;;;;;;7.22;1.80;;;;;;;;;;5100567;28;20794;-66
2022/05/25 08:33:32;;;;;;;10.23;1.45;;;;;;;;;;5092403;28;20016;-67
2022/05/25 08:36:00;;;;;;;13.07;1.92;;;;;;;;;;5081289;28;20016;-65
2022/05/25 08:38:25;;;;;;;6.70;1.38;;;;;;;;;;5102479;28;20482;-67
2022/05/25 08:40:51;;;;;;;10.45;1.70;;;;;;;;;;5095922;28;20043;-67
2022/05/25 08:43:19;;;;;;;11.63;1.60;;;;;;;;;;5103622;28;20042;-66
2022/05/25 08:45:47;;;;;;;8.75;1.38;;;;;;;;;;5101548;28;20106;-66
2022/05/25 08:48:13;;;;;;;4.18;1.30;;;;;;;;;;5103741;28;20437;-66
2022/05/25 08:50:40;;;;;;;5.20;1.55;;;;;;;;;;5103276;28;20024;-67
2022/05/25 08:53:06;;;;;;;8.73;1.50;;;;;;;;;;5103236;28;20012;-66
2022/05/25 08:55:42;;;;;;;6.38;1.50;;;;;;;;;;5095245;28;20939;-67
2022/05/25 08:58:08;;;;;;;5.25;1.88;;;;;;;;;;5083851;28;20024;-67
2022/05/25 09:00:34;;;;;;;8.45;1.50;;;;;;;;;;5081677;28;20258;-67
2022/05/25 09:03:26;;;;;;;5.13;1.58;;;;;;;;;;5083286;28;20036;-67
2022/05/25 09:06:11;;;;;;;5.97;1.25;;;;;;;;;;5065822;28;20028;-67
2022/05/25 09:09:00;;;;;;;8.73;1.67;;;;;;;;;;5100864;28;20118;-66
2022/05/25 09:11:27;;;;;;;7.78;1.73;;;;;;;;;;5097236;28;20059;-66
2022/05/25 09:13:58;;;;;;;17.20;2.15;;;;;;;;;;5102233;28;20054;-66
2022/05/25 09:16:26;;;;;;;24.58;2.35;;;;;;;;;;5102061;28;20083;-67
2022/05/25 09:19:00;;;;;;;63.45;5.03;;;;;;;;;;5095751;28;20031;-66
2022/05/25 09:21:27;;;;;;;15.98;1.95;;;;;;;;;;5080616;28;20032;-67
2022/05/25 09:23:53;;;;;;;14.55;1.83;;;;;;;;;;5084090;28;20024;-67
2022/05/25 09:26:18;;;;;;;6.45;1.70;;;;;;;;;;5074200;28;20058;-66
2022/05/25 09:28:46;;;;;;;6.50;1.70;;;;;;;;;;5084492;28;20017;-66
2022/05/25 09:31:13;;;;;;;7.95;1.60;;;;;;;;;;5077807;28;20085;-66
2022/05/25 09:33:38;;;;;;;8.77;1.30;;;;;;;;;;5083531;28;20024;-67
2022/05/25 09:36:12;;;;;;;10.32;1.88;;;;;;;;;;5094990;28;20298;-66
2022/05/25 09:41:14;;;;;;;8.65;1.60;;;;;;;;;;3061349;22;20330;-69
2022/05/25 09:43:40;;;;;;;7.28;1.55;;;;;;;;;;5004474;28;20078;-68
2022/05/25 09:46:14;;;;;;;3.88;1.00;;;;;;;;;;4996084;28;20033;-70
2022/05/25 09:48:50;;;;;;;2.90;1.20;;;;;;;;;;4985892;28;20033;-69
2022/05/25 09:51:25;;;;;;;6.18;1.30;;;;;;;;;;4981902;28;20018;-70
2022/05/25 09:53:53;;;;;;;4.03;1.40;;;;;;;;;;4986403;28;20018;-70
2022/05/25 09:56:18;;;;;;;5.65;1.15;;;;;;;;;;4996519;28;20440;-68
2022/05/25 09:58:47;;;;;;;8.90;1.33;;;;;;;;;;4984726;28;20519;-70
2022/05/25 10:01:24;;;;;;;6.18;1.33;;;;;;;;;;4996033;28;20032;-69
2022/05/25 10:03:50;;;;;;;7.80;1.50;;;;;;;;;;4986171;28;20026;-70
2022/05/25 10:06:16;;;;;;;7.18;1.50;;;;;;;;;;4960727;28;20038;-68
2022/05/25 10:08:41;;;;;;;4.53;1.38;;;;;;;;;;5004978;28;20383;-69
2022/05/25 10:11:29;;;;;;;5.18;1.50;;;;;;;;;;4977935;28;20034;-68
2022/05/25 10:14:17;;;;;;;6.20;1.60;;;;;;;;;;5001468;28;20022;-68
2022/05/25 10:16:43;;;;;;;5.60;0.98;;;;;;;;;;4987043;28;20531;-72
2022/05/25 10:19:13;;;;;;;1.77;0.80;;;;;;;;;;4983665;28;20108;-69
2022/05/25 10:21:39;;;;;;;3.53;1.02;;;;;;;;;;4997474;28;20017;-69
2022/05/25 10:24:13;;;;;;;9.18;1.20;;;;;;;;;;4999680;28;20152;-68
2022/05/25 10:26:48;;;;;;;8.82;1.30;;;;;;;;;;4996046;28;20340;-69
2022/05/25 10:36:45;;;;;;;7.18;1.20;;;;;;;;;;4998314;28;20105;-69
2022/05/25 10:37:46;;;;;;;8.27;1.63;;;;;;;;;;5000037;28;20117;-70
2022/05/25 10:40:14;;;;;;;4.00;1.10;;;;;;;;;;4978494;28;20132;-69
2022/05/25 10:42:44;;;;;;;7.93;1.20;;;;;;;;;;4979270;28;20045;-68
2022/05/25 10:45:12;;;;;;;6.22;1.27;;;;;;;;;;4996475;28;20438;-69
2022/05/25 10:47:54;;;;;;;5.15;1.05;;;;;;;;;;4983919;28;20488;-71
2022/05/25 10:50:20;;;;;;;6.95;1.55;;;;;;;;;;4999654;28;20136;-68
2022/05/25 10:52:48;;;;;;;8.35;1.20;;;;;;;;;;5004197;28;20188;-69
2022/05/25 10:55:14;;;;;;;8.38;1.27;;;;;;;;;;4984708;28;20032;-68
2022/05/25 10:57:39;;;;;;;8.02;1.05;;;;;;;;;;4985708;28;20076;-69
2022/05/25 11:00:09;;;;;;;5.05;1.17;;;;;;;;;;5004446;28;20029;-69
2022/05/25 11:02:34;;;;;;;6.78;1.30;;;;;;;;;;4987991;28;20097;-71
2022/05/25 11:05:09;;;;;;;6.97;1.40;;;;;;;;;;4986209;28;20170;-70
2022/05/25 11:07:38;;;;;;;10.93;1.50;;;;;;;;;;4986388;28;20274;-70
2022/05/25 11:10:19;;;;;;;8.07;1.63;;;;;;;;;;5000365;28;20335;-70
2022/05/25 11:12:56;;;;;;;11.75;1.38;;;;;;;;;;4968240;28;20049;-72
2022/05/25 11:15:25;;;;;;;9.40;1.50;;;;;;;;;;4987808;28;20451;-70
2022/05/25 11:18:06;;;;;;;7.35;1.38;;;;;;;;;;4981165;28;20022;-69
2022/05/25 11:20:31;;;;;;;8.70;1.27;;;;;;;;;;4988591;28;20030;-69
2022/05/25 11:23:13;;;;;;;8.53;1.20;;;;;;;;;;5004183;28;20389;-69
2022/05/25 11:25:57;;;;;;;8.48;1.63;;;;;;;;;;4999453;28;20302;-69
2022/05/25 11:28:42;;;;;;;11.13;1.63;;;;;;;;;;4986104;28;20500;-70
2022/05/25 11:31:18;;;;;;;10.20;1.55;;;;;;;;;;4984490;28;20018;-68
2022/05/25 11:34:02;;;;;;;8.38;1.50;;;;;;;;;;4987615;28;20527;-69
2022/05/25 11:36:47;;;;;;;6.15;0.95;;;;;;;;;;4983934;28;20026;-68
2022/05/25 11:39:28;;;;;;;8.90;1.77;;;;;;;;;;5004652;28;20368;-69
2022/05/25 11:42:11;;;;;;;4.75;1.33;;;;;;;;;;4998934;28;20399;-70
2022/05/25 11:44:50;;;;;;;9.15;2.03;;;;;;;;;;5004208;28;20101;-69
2022/05/25 11:47:15;;;;;;;5.38;1.35;;;;;;;;;;4984818;28;20093;-70
2022/05/25 11:49:43;;;;;;;11.48;1.60;;;;;;;;;;4983537;28;20086;-68
2022/05/25 11:52:27;;;;;;;8.93;1.45;;;;;;;;;;4979775;28;20479;-68
2022/05/25 11:58:02;;;;;;;10.73;1.63;;;;;;;;;;4983731;28;20073;-68
2022/05/25 12:00:37;;;;;;;11.60;1.45;;;;;;;;;;4986467;28;20084;-69
2022/05/25 12:03:20;;;;;;;8.80;1.67;;;;;;;;;;5001625;28;20534;-67
2022/05/25 12:05:45;;;;;;;6.60;1.30;;;;;;;;;;4999396;28;20014;-70
2022/05/25 12:08:18;;;;;;;9.82;1.23;;;;;;;;;;5000585;28;20278;-69
2022/05/25 12:10:44;;;;;;;7.05;1.90;;;;;;;;;;4997938;28;20605;-70
2022/05/25 12:13:19;;;;;;;5.10;1.27;;;;;;;;;;5001955;28;20483;-69
2022/05/25 12:16:00;;;;;;;10.02;1.83;;;;;;;;;;4980771;28;20635;-69
2022/05/25 12:18:34;;;;;;;7.90;1.70;;;;;;;;;;4981662;28;20151;-71
2022/05/25 12:21:01;;;;;;;5.32;1.83;;;;;;;;;;4983195;28;20041;-68
2022/05/25 12:23:39;;;;;;;8.73;1.70;;;;;;;;;;5000311;28;20615;-70
2022/05/25 12:26:14;;;;;;;10.32;1.92;;;;;;;;;;4996080;28;20093;-70
2022/05/25 12:28:41;;;;;;;11.27;1.95;;;;;;;;;;4984553;28;20026;-70
2022/05/25 12:31:15;;;;;;;9.82;1.80;;;;;;;;;;4982779;28;20088;-70
2022/05/25 12:33:42;;;;;;;5.80;1.80;;;;;;;;;;5004652;28;20050;-70
2022/05/25 12:36:10;;;;;;;12.18;1.73;;;;;;;;;;5003055;28;20042;-70
2022/05/25 12:38:36;;;;;;;6.80;1.75;;;;;;;;;;4985280;28;20048;-69
2022/05/25 12:41:27;;;;;;;12.02;1.80;;;;;;;;;;4996931;28;20057;-71
2022/05/25 12:43:54;;;;;;;14.65;2.15;;;;;;;;;;4978649;28;20107;-72
2022/05/25 12:49:30;;;;;;;17.70;2.40;;;;;;;;;;5001505;28;20109;-71
2022/05/25 12:51:55;;;;;;;12.45;2.05;;;;;;;;;;5002056;28;20026;-70
2022/05/25 12:54:22;;;;;;;11.32;1.88;;;;;;;;;;5003222;28;20434;-70
2022/05/25 12:56:49;;;;;;;15.63;2.10;;;;;;;;;;4980623;28;20057;-70
2022/05/25 12:59:25;;;;;;;16.92;2.53;;;;;;;;;;5000996;28;20021;-69
2022/05/25 13:02:09;;;;;;;7.45;1.65;;;;;;;;;;4982749;28;20018;-71
2022/05/25 13:04:54;;;;;;;14.63;1.88;;;;;;;;;;4981976;28;20038;-70
2022/05/25 13:07:36;;;;;;;16.48;2.13;;;;;;;;;;4999249;28;20467;-69
2022/05/25 13:10:05;;;;;;;13.98;2.60;;;;;;;;;;4998644;28;20134;-70
2022/05/25 13:12:39;;;;;;;14.27;2.22;;;;;;;;;;4993682;28;20368;-70
2022/05/25 13:15:27;;;;;;;25.63;2.53;;;;;;;;;;4979261;28;20021;-69
2022/05/25 13:17:58;;;;;;;19.42;2.03;;;;;;;;;;4986939;28;20530;-68
2022/05/25 13:20:27;;;;;;;17.85;2.33;;;;;;;;;;4996936;28;20092;-70
2022/05/25 13:22:54;;;;;;;20.48;2.00;;;;;;;;;;5002491;28;20021;-71
2022/05/25 13:25:27;;;;;;;15.90;2.13;;;;;;;;;;4980792;28;20026;-70
2022/05/25 13:28:17;;;;;;;13.18;1.95;;;;;;;;;;5001638;28;20018;-71
2022/05/25 13:30:46;;;;;;;10.35;2.25;;;;;;;;;;4999119;28;20014;-69
2022/05/25 13:33:21;;;;;;;17.48;2.63;;;;;;;;;;5002693;28;20048;-68
2022/05/25 13:35:48;;;;;;;18.40;2.47;;;;;;;;;;4983152;28;20045;-69
2022/05/25 13:38:23;;;;;;;15.95;2.53;;;;;;;;;;5000591;28;20025;-69
2022/05/25 13:40:54;;;;;;;15.23;2.22;;;;;;;;;;4997973;28;20044;-69
2022/05/25 13:43:23;;;;;;;19.13;2.35;;;;;;;;;;4983117;28;20147;-70
2022/05/25 13:45:49;;;;;;;12.85;2.58;;;;;;;;;;4980253;28;20022;-67
2022/05/25 13:48:16;;;;;;;11.30;2.00;;;;;;;;;;5002166;28;20022;-69
2022/05/25 13:50:44;;;;;;;15.70;2.20;;;;;;;;;;4981423;28;20026;-70
2022/05/25 13:53:12;;;;;;;16.92;2.72;;;;;;;;;;4984655;28;20084;-69
2022/05/25 13:55:42;;;;;;;12.60;1.83;;;;;;;;;;4996069;28;20409;-69
2022/05/25 13:58:09;;;;;;;10.45;2.42;;;;;;;;;;4979536;28;20492;-69
2022/05/25 14:00:41;;;;;;;12.05;2.08;;;;;;;;;;4997318;28;20657;-70
2022/05/25 14:03:19;;;;;;;11.85;1.70;;;;;;;;;;4998309;28;20041;-69
2022/05/25 14:05:44;;;;;;;13.70;2.10;;;;;;;;;;4980198;28;20022;-69
2022/05/25 14:08:12;;;;;;;12.50;1.80;;;;;;;;;;4982744;28;20033;-70
2022/05/25 14:13:41;;;;;;;10.52;1.88;;;;;;;;;;4936784;28;20086;-70
2022/05/25 14:16:13;;;;;;;8.57;1.90;;;;;;;;;;4972447;28;20034;-70
2022/05/25 14:18:39;;;;;;;;;;;;;;;;;;4980353;28;20776;-70
2022/05/25 14:21:04;;;;;;;10.82;2.22;;;;;;;;;;4968060;28;19917;-64
2022/05/25 14:23:30;;;;;;;9.75;2.05;;;;;;;;;;4963005;28;20042;-64
2022/05/25 14:25:58;;;;;;;11.65;1.30;;;;;;;;;;4965622;28;20384;-64
2022/05/25 14:28:43;;;;;;;13.05;1.77;;;;;;;;;;4970358;28;20120;-66
2022/05/25 14:31:08;;;;;;;14.68;2.03;;;;;;;;;;4966424;28;20914;-64
2022/05/25 14:33:34;;;;;;;11.63;2.15;;;;;;;;;;4982547;28;20053;-64
2022/05/25 14:36:00;;;;;;;10.20;2.03;;;;;;;;;;4963041;28;20115;-63
2022/05/25 14:38:45;;;;;;;17.42;2.45;;;;;;;;;;4964091;28;20022;-64
2022/05/25 14:41:23;;;;;;;10.23;2.78;;;;;;;;;;4985554;28;20056;-65
2022/05/25 14:43:49;;;;;;;9.82;1.85;;;;;;;;;;4969725;28;20092;-64
2022/05/25 14:46:28;;;;;;;10.32;2.05;;;;;;;;;;4968204;28;20523;-63
2022/05/25 14:48:54;;;;;;;11.18;1.92;;;;;;;;;;4984534;28;20076;-64
2022/05/25 14:51:24;;;;;;;14.35;2.22;;;;;;;;;;4980773;28;20010;-64
2022/05/25 14:53:50;;;;;;;23.15;2.88;;;;;;;;;;4969139;28;20018;-64
2022/05/25 14:56:34;;;;;;;15.65;2.20;;;;;;;;;;4967431;28;20048;-64
2022/05/25 14:59:00;;;;;;;12.65;2.03;;;;;;;;;;4959531;28;20022;-64
2022/05/25 15:01:30;;;;;;;16.27;2.30;;;;;;;;;;4974838;28;20358;-65
2022/05/25 15:03:56;;;;;;;13.43;2.17;;;;;;;;;;4969760;28;20041;-67
2022/05/25 15:06:23;;;;;;;18.03;2.50;;;;;;;;;;4977208;28;20021;-63
2022/05/25 15:08:52;;;;;;;12.65;2.30;;;;;;;;;;4965473;28;20314;-65
2022/05/25 15:11:36;;;;;;;18.85;3.00;;;;;;;;;;4959030;28;20119;-64
2022/05/25 15:19:49;;;;;;;17.80;2.33;;;;;;;;;;5005081;28;20391;-64
2022/05/25 15:22:15;;;;;;;23.30;3.30;;;;;;;;;;4983845;28;20030;-65